Time;durP1;ratioP1;P1;durP2;ratioP2;P2;SDS_P1;SDS_P2;PMS_P1;PMS_P2;Temp;Humidity;BMP_temperature;BMP_pressure;BME280_temperature;BME280_humidity;BME280_pressure;Samples;Min_cycle;Max_cycle;Signal;HPM_P1;HPM_P2
2022/10/07 00:02:07;;;;;;;4.72;4.53;;;11.90;99.90;;;;;;3931678;30;20059;-87
2022/10/07 00:04:26;;;;;;;5.25;5.05;;;12.00;99.90;;;;;;3942238;30;20046;-87
2022/10/07 00:06:47;;;;;;;4.45;4.30;;;12.00;99.90;;;;;;3940108;29;20050;-88
2022/10/07 00:09:50;;;;;;;7.57;5.78;;;11.90;99.90;;;;;;3991387;29;20049;-88
2022/10/07 00:12:25;;;;;;;5.07;4.68;;;11.90;99.90;;;;;;3997280;29;20111;-87
2022/10/07 00:14:59;;;;;;;5.95;5.63;;;11.90;99.90;;;;;;3990060;29;20049;-87
2022/10/07 00:17:34;;;;;;;8.32;4.72;;;11.80;99.90;;;;;;4000729;29;20081;-87
2022/10/07 00:20:39;;;;;;;5.80;5.53;;;11.80;99.90;;;;;;3994421;29;20053;-87
2022/10/07 00:22:58;;;;;;;4.88;4.57;;;11.70;99.90;;;;;;3955664;29;20054;-87
2022/10/07 00:25:20;;;;;;;4.88;4.65;;;11.60;99.90;;;;;;3991465;29;20114;-87
2022/10/07 00:27:54;;;;;;;5.93;5.65;;;11.60;99.90;;;;;;3991110;29;20060;-87
2022/10/07 00:30:16;;;;;;;5.20;4.82;;;11.50;99.90;;;;;;3995478;29;20419;-87
2022/10/07 00:32:38;;;;;;;4.75;4.65;;;11.50;99.90;;;;;;4011868;29;20145;-87
2022/10/07 00:35:00;;;;;;;4.80;4.60;;;11.50;99.90;;;;;;4016071;29;20594;-86
2022/10/07 00:37:22;;;;;;;4.60;4.20;;;11.50;99.90;;;;;;4012707;29;20065;-87
2022/10/07 00:39:44;;;;;;;5.25;4.65;;;11.60;99.90;;;;;;4028996;29;20137;-86
2022/10/07 00:42:06;;;;;;;4.53;4.22;;;11.60;99.90;;;;;;4025173;29;20064;-87
2022/10/07 00:44:38;;;;;;;4.70;4.32;;;11.60;99.90;;;;;;4031530;29;20105;-87
2022/10/07 00:47:27;;;;;;;4.60;4.15;;;11.60;99.90;;;;;;4028366;29;20056;-87
2022/10/07 00:50:20;;;;;;;4.93;4.82;;;11.60;99.90;;;;;;4076078;29;20524;-87
2022/10/07 00:53:15;;;;;;;4.03;3.92;;;11.50;99.90;;;;;;4123568;28;20050;-87
2022/10/07 00:55:35;;;;;;;3.90;3.70;;;11.50;99.90;;;;;;4079586;29;20074;-87
2022/10/07 00:58:00;;;;;;;3.90;3.80;;;11.50;99.90;;;;;;4082727;29;20067;-87
2022/10/07 01:00:23;;;;;;;4.35;3.97;;;11.50;99.90;;;;;;4084283;29;20107;-87
2022/10/07 01:02:46;;;;;;;3.90;3.55;;;11.50;99.90;;;;;;4070256;29;20504;-87
2022/10/07 01:05:12;;;;;;;4.85;4.75;;;11.50;99.90;;;;;;4096204;29;20110;-87
2022/10/07 01:07:37;;;;;;;4.68;4.47;;;11.40;99.90;;;;;;4085076;29;20484;-87
2022/10/07 01:10:00;;;;;;;4.40;4.20;;;11.40;99.90;;;;;;4082481;29;20070;-86
2022/10/07 01:12:36;;;;;;;5.60;5.15;;;11.40;99.90;;;;;;4092344;28;20050;-87
2022/10/07 01:15:07;;;;;;;9.02;5.78;;;11.30;99.90;;;;;;4088268;29;20098;-87
2022/10/07 01:17:35;;;;;;;4.97;4.80;;;11.30;99.90;;;;;;4080764;29;20148;-86
2022/10/07 01:20:19;;;;;;;4.60;4.40;;;11.20;99.90;;;;;;4101468;28;20050;-87
2022/10/07 01:22:53;;;;;;;4.45;4.35;;;11.20;99.90;;;;;;4085437;29;20150;-87
2022/10/07 01:25:25;;;;;;;5.75;5.45;;;11.20;99.90;;;;;;4089883;29;20119;-87
2022/10/07 01:27:57;;;;;;;5.65;4.63;;;11.20;99.90;;;;;;4095457;29;20159;-86
2022/10/07 01:30:19;;;;;;;4.95;4.75;;;11.20;99.90;;;;;;4058878;28;20506;-86
2022/10/07 01:32:46;;;;;;;5.00;4.90;;;11.20;99.90;;;;;;4156043;28;20072;-87
2022/10/07 01:35:13;;;;;;;5.55;5.45;;;11.20;99.90;;;;;;4147983;28;20060;-87
2022/10/07 01:37:40;;;;;;;4.10;3.90;;;11.20;99.90;;;;;;4140751;28;20057;-87
2022/10/07 01:40:08;;;;;;;4.82;4.63;;;11.20;99.90;;;;;;4159528;28;20125;-87
2022/10/07 01:42:31;;;;;;;5.00;4.70;;;11.20;99.90;;;;;;4139043;28;20048;-87
2022/10/07 01:44:56;;;;;;;3.65;3.55;;;11.10;99.90;;;;;;4141790;28;20126;-87
2022/10/07 01:47:17;;;;;;;4.78;4.68;;;11.00;99.90;;;;;;4154345;28;20052;-87
2022/10/07 01:50:12;;;;;;;4.35;4.07;;;11.10;99.90;;;;;;4152359;28;20056;-86
2022/10/07 01:52:58;;;;;;;4.15;4.05;;;11.20;99.90;;;;;;4141564;28;20108;-87
2022/10/07 01:55:50;;;;;;;4.68;4.53;;;11.20;99.90;;;;;;4140456;28;20154;-87
2022/10/07 01:58:32;;;;;;;5.53;5.15;;;11.10;99.90;;;;;;4139353;28;20088;-87
2022/10/07 02:01:17;;;;;;;7.75;4.50;;;11.00;99.90;;;;;;4142126;28;20053;-87
2022/10/07 02:04:19;;;;;;;3.33;3.30;;;11.00;99.90;;;;;;4138042;28;20057;-87
2022/10/07 02:07:32;;;;;;;3.72;3.53;;;11.00;99.90;;;;;;4101831;28;20444;-87
2022/10/07 02:10:34;;;;;;;3.80;3.72;;;11.00;99.90;;;;;;4082176;29;20062;-85
2022/10/07 02:13:22;;;;;;;4.65;4.40;;;11.00;99.90;;;;;;4077412;29;20121;-87
2022/10/07 02:16:18;;;;;;;4.18;4.07;;;10.90;99.90;;;;;;4064741;29;20074;-87
2022/10/07 02:18:54;;;;;;;3.97;3.88;;;10.90;99.90;;;;;;4076185;29;20615;-87
2022/10/07 02:21:32;;;;;;;3.95;3.75;;;10.90;99.90;;;;;;4074730;29;20086;-87
2022/10/07 02:24:11;;;;;;;4.43;4.15;;;10.90;99.90;;;;;;4070247;29;20090;-87
2022/10/07 02:26:48;;;;;;;6.22;5.68;;;10.90;99.90;;;;;;4079998;29;20056;-87
2022/10/07 02:29:06;;;;;;;4.30;4.20;;;10.50;99.90;;;;;;4183427;28;20427;-57
2022/10/07 02:31:29;;;;;;;;;;;10.30;99.90;;;;;;4183965;28;20095;-57
2022/10/07 02:33:52;;;;;;;5.20;4.80;;;10.10;99.90;;;;;;4183562;28;20288;-56
2022/10/07 02:36:23;;;;;;;4.60;4.50;;;10.10;99.90;;;;;;4183439;28;20059;-56
2022/10/07 02:38:44;;;;;;;4.43;4.32;;;10.20;99.90;;;;;;4183997;28;20485;-57
2022/10/07 02:41:32;;;;;;;3.60;3.45;;;10.20;99.90;;;;;;4183507;28;20059;-57
2022/10/07 02:43:56;;;;;;;4.40;4.15;;;10.40;99.90;;;;;;4183284;28;20059;-57
2022/10/07 02:46:23;;;;;;;4.47;4.25;;;10.50;99.90;;;;;;4183227;28;20155;-57
2022/10/07 02:48:59;;;;;;;3.42;3.35;;;10.60;99.90;;;;;;4182921;28;20514;-55
2022/10/07 02:51:23;;;;;;;4.13;4.03;;;10.60;99.90;;;;;;4183806;28;20087;-56
2022/10/07 02:53:48;;;;;;;4.00;3.90;;;10.60;99.90;;;;;;4182808;28;20132;-56
2022/10/07 02:56:08;;;;;;;3.20;3.15;;;10.60;99.90;;;;;;4182791;28;20102;-57
2022/10/07 02:58:29;;;;;;;3.85;3.53;;;10.50;99.90;;;;;;4183016;28;20411;-56
2022/10/07 03:00:56;;;;;;;4.90;4.65;;;10.40;99.90;;;;;;4182627;28;20055;-56
2022/10/07 03:03:17;;;;;;;3.22;3.13;;;10.20;99.90;;;;;;4184013;28;20075;-57
2022/10/07 03:05:39;;;;;;;3.70;3.60;;;10.10;99.90;;;;;;4183432;28;20052;-57
2022/10/07 03:08:06;;;;;;;17.17;5.57;;;10.00;99.90;;;;;;4182543;28;20051;-56
2022/10/07 03:10:27;;;;;;;4.90;4.22;;;10.00;99.90;;;;;;4182651;28;20056;-56
2022/10/07 03:12:49;;;;;;;3.70;3.60;;;10.00;99.90;;;;;;4183045;28;20056;-56
2022/10/07 03:15:10;;;;;;;4.35;4.20;;;10.10;99.90;;;;;;4182951;28;20052;-56
2022/10/07 03:17:30;;;;;;;4.68;4.43;;;10.10;99.90;;;;;;4182246;28;20072;-56
2022/10/07 03:19:51;;;;;;;6.10;4.25;;;10.10;99.90;;;;;;4182902;28;20087;-57
2022/10/07 03:22:11;;;;;;;4.28;4.18;;;10.20;99.90;;;;;;4182566;28;20420;-56
2022/10/07 03:24:32;;;;;;;5.20;4.88;;;10.20;99.90;;;;;;4182635;28;20117;-56
2022/10/07 03:26:52;;;;;;;20.38;4.30;;;10.20;99.90;;;;;;4182832;28;20527;-57
2022/10/07 03:29:13;;;;;;;4.28;4.05;;;10.10;99.90;;;;;;4182338;28;20124;-56
2022/10/07 03:31:34;;;;;;;4.22;4.22;;;10.00;99.90;;;;;;4182470;28;20095;-56
2022/10/07 03:33:55;;;;;;;3.97;3.78;;;9.80;99.90;;;;;;4182284;28;20048;-57
2022/10/07 03:36:16;;;;;;;4.93;4.82;;;9.70;99.90;;;;;;4182559;28;20094;-56
2022/10/07 03:38:37;;;;;;;5.57;5.47;;;9.70;99.90;;;;;;4181707;28;20055;-57
2022/10/07 03:41:03;;;;;;;13.15;5.10;;;9.80;99.90;;;;;;4171325;28;20127;-56
2022/10/07 03:43:25;;;;;;;3.25;3.15;;;9.80;99.90;;;;;;4171652;28;20056;-56
2022/10/07 03:45:49;;;;;;;4.75;4.65;;;9.60;99.90;;;;;;4171793;28;20159;-57
2022/10/07 03:48:10;;;;;;;4.55;4.45;;;9.70;99.90;;;;;;4171524;28;20535;-57
2022/10/07 03:50:33;;;;;;;4.82;4.53;;;9.70;99.90;;;;;;4171402;28;20136;-57
2022/10/07 03:52:55;;;;;;;4.00;4.00;;;9.70;99.90;;;;;;4171060;28;20480;-57
2022/10/07 03:55:15;;;;;;;3.85;3.72;;;9.70;99.90;;;;;;4170713;28;20558;-57
2022/10/07 03:57:52;;;;;;;43.40;6.45;;;9.60;99.90;;;;;;4170712;28;20541;-57
2022/10/07 04:00:21;;;;;;;35.08;5.53;;;9.50;99.90;;;;;;4170633;28;20108;-57
2022/10/07 04:02:41;;;;;;;55.58;4.63;;;9.40;99.90;;;;;;4170902;28;20055;-57
2022/10/07 04:05:02;;;;;;;81.47;5.80;;;9.30;99.90;;;;;;4171109;28;20420;-56
2022/10/07 04:07:23;;;;;;;9.25;3.22;;;9.30;99.90;;;;;;4170673;28;20125;-56
2022/10/07 04:09:43;;;;;;;4.30;4.20;;;9.30;99.90;;;;;;4171267;28;20170;-56
2022/10/07 04:12:04;;;;;;;6.43;5.75;;;9.30;99.90;;;;;;4171351;28;20522;-57
2022/10/07 04:14:25;;;;;;;34.55;4.03;;;9.40;99.90;;;;;;4170792;28;20048;-57
2022/10/07 04:16:45;;;;;;;24.70;3.55;;;9.30;99.90;;;;;;4170888;28;20056;-57
2022/10/07 04:19:06;;;;;;;31.05;4.30;;;9.30;99.90;;;;;;4170448;28;20092;-56
2022/10/07 04:21:27;;;;;;;3.58;3.58;;;9.20;99.90;;;;;;4170897;28;20573;-56
2022/10/07 04:23:47;;;;;;;2.53;2.53;;;9.20;99.90;;;;;;4166913;28;20510;-57
2022/10/07 04:26:10;;;;;;;3.30;3.30;;;9.10;99.90;;;;;;4170507;28;20484;-56
2022/10/07 04:28:30;;;;;;;2.80;2.70;;;9.10;99.90;;;;;;4171025;28;20523;-57
2022/10/07 04:30:52;;;;;;;4.05;4.05;;;9.10;99.90;;;;;;4170960;28;20057;-56
2022/10/07 04:33:13;;;;;;;4.43;4.32;;;9.10;99.90;;;;;;4170523;28;20095;-56
2022/10/07 04:35:38;;;;;;;5.07;4.85;;;9.20;99.90;;;;;;4169790;28;20103;-57
2022/10/07 04:37:59;;;;;;;4.03;3.83;;;9.20;99.90;;;;;;4170750;28;20059;-56
2022/10/07 04:40:21;;;;;;;3.90;3.78;;;9.30;99.90;;;;;;4169732;28;20056;-57
2022/10/07 04:45:21;;;;;;;4.50;4.40;;;9.30;99.90;;;;;;4170499;28;20123;-57
2022/10/07 04:47:44;;;;;;;3.90;3.80;;;9.30;99.90;;;;;;4170738;28;20404;-57
2022/10/07 04:50:06;;;;;;;6.95;3.72;;;9.30;99.90;;;;;;4169436;28;20132;-57
2022/10/07 04:52:27;;;;;;;4.35;4.25;;;9.30;99.90;;;;;;4169855;28;20592;-56
2022/10/07 04:54:47;;;;;;;5.13;5.03;;;9.40;99.90;;;;;;4169843;28;20102;-57
2022/10/07 04:57:11;;;;;;;5.03;4.80;;;9.50;99.90;;;;;;4170190;28;20099;-57
2022/10/07 04:59:31;;;;;;;4.43;4.32;;;9.50;99.90;;;;;;4170268;28;20103;-56
2022/10/07 05:01:54;;;;;;;3.88;3.78;;;9.30;99.90;;;;;;4171172;28;20055;-57
2022/10/07 05:04:15;;;;;;;7.03;5.60;;;9.30;99.90;;;;;;4170798;28;20059;-57
2022/10/07 05:06:36;;;;;;;4.68;4.57;;;9.30;99.90;;;;;;4170458;28;20057;-57
2022/10/07 05:08:56;;;;;;;5.28;5.18;;;9.40;99.90;;;;;;4169910;28;20138;-57
2022/10/07 05:11:17;;;;;;;4.57;4.38;;;9.40;99.90;;;;;;4170199;28;20452;-57
2022/10/07 05:13:38;;;;;;;4.57;4.38;;;9.40;99.90;;;;;;4169854;28;20056;-57
2022/10/07 05:16:00;;;;;;;5.78;5.57;;;9.40;99.90;;;;;;4169688;28;20096;-56
2022/10/07 05:18:22;;;;;;;;;;;9.40;99.90;;;;;;4170307;28;20132;-58
2022/10/07 05:20:43;;;;;;;7.40;5.53;;;9.30;99.90;;;;;;4169132;28;20084;-58
2022/10/07 05:23:04;;;;;;;12.55;5.35;;;8.90;99.90;;;;;;4169881;28;20055;-57
2022/10/07 05:25:25;;;;;;;9.35;6.28;;;8.80;99.90;;;;;;4169789;28;20098;-57
2022/10/07 05:27:50;;;;;;;25.88;5.95;;;8.60;99.90;;;;;;4169182;28;20103;-57
2022/10/07 05:30:11;;;;;;;47.67;6.18;;;8.50;99.90;;;;;;4169687;28;20140;-58
2022/10/07 05:32:32;;;;;;;48.95;6.82;;;8.50;99.90;;;;;;4170091;28;20047;-57
2022/10/07 05:34:52;;;;;;;24.13;5.05;;;8.50;99.90;;;;;;4169618;28;20060;-57
2022/10/07 05:37:14;;;;;;;5.00;4.80;;;8.50;99.90;;;;;;4169990;28;20060;-57
2022/10/07 05:39:34;;;;;;;5.40;5.30;;;8.70;99.90;;;;;;4169581;28;20500;-58
2022/10/07 05:41:54;;;;;;;5.45;5.35;;;8.80;99.90;;;;;;4168938;28;20581;-57
2022/10/07 05:44:16;;;;;;;8.48;7.82;;;8.90;99.90;;;;;;4169584;28;20140;-57
2022/10/07 05:46:36;;;;;;;5.90;5.80;;;9.10;99.90;;;;;;4169593;28;20135;-58
2022/10/07 05:48:57;;;;;;;6.35;6.15;;;9.10;99.90;;;;;;4169010;28;20048;-57
2022/10/07 05:51:19;;;;;;;5.88;5.70;;;9.20;99.90;;;;;;4169257;28;20478;-57
2022/10/07 05:53:41;;;;;;;5.20;5.10;;;9.30;99.90;;;;;;4169758;28;20122;-57
2022/10/07 05:56:06;;;;;;;5.95;5.75;;;9.30;99.90;;;;;;4169615;28;20043;-58
2022/10/07 05:58:26;;;;;;;6.13;6.03;;;9.30;99.90;;;;;;4169124;28;20175;-58
2022/10/07 06:00:58;;;;;;;6.18;5.78;;;9.30;99.90;;;;;;4169092;28;20059;-56
2022/10/07 06:03:25;;;;;;;6.00;5.70;;;9.40;99.90;;;;;;4169256;28;20654;-58
2022/10/07 06:05:46;;;;;;;6.72;6.10;;;9.50;99.90;;;;;;4169656;28;20531;-57
2022/10/07 06:08:07;;;;;;;6.03;5.65;;;9.50;99.90;;;;;;4169224;28;20067;-58
2022/10/07 06:13:07;;;;;;;6.57;5.25;;;9.60;99.90;;;;;;4168435;28;20479;-57
2022/10/07 06:15:30;;;;;;;7.63;5.55;;;9.40;99.90;;;;;;4169356;28;20107;-58
2022/10/07 06:17:50;;;;;;;4.68;4.45;;;9.50;99.90;;;;;;4169613;28;20431;-57
2022/10/07 06:20:13;;;;;;;6.55;5.75;;;9.50;99.90;;;;;;4169415;28;20489;-58
2022/10/07 06:22:33;;;;;;;5.28;5.18;;;9.70;99.90;;;;;;4169178;28;20064;-57
2022/10/07 06:24:57;;;;;;;5.63;4.90;;;9.70;99.90;;;;;;4169251;28;20063;-58
2022/10/07 06:27:18;;;;;;;4.80;4.65;;;9.80;99.90;;;;;;4168498;28;20608;-58
2022/10/07 06:29:38;;;;;;;5.78;5.32;;;9.80;99.90;;;;;;4169234;28;20052;-57
2022/10/07 06:31:59;;;;;;;4.38;4.03;;;9.80;99.90;;;;;;4168660;28;20115;-58
2022/10/07 06:34:20;;;;;;;4.70;4.22;;;9.80;99.90;;;;;;4168340;28;20107;-57
2022/10/07 06:36:41;;;;;;;4.88;4.18;;;9.80;99.90;;;;;;4168870;28;20136;-58
2022/10/07 06:39:01;;;;;;;4.13;3.92;;;9.80;99.90;;;;;;4168957;28;20098;-58
2022/10/07 06:41:22;;;;;;;3.97;3.88;;;9.90;99.90;;;;;;4167882;28;20132;-58
2022/10/07 06:43:43;;;;;;;6.25;4.13;;;9.90;99.90;;;;;;4169177;28;20519;-58
2022/10/07 06:46:05;;;;;;;5.28;5.07;;;9.90;99.90;;;;;;4168947;28;20099;-58
2022/10/07 06:48:28;;;;;;;6.05;5.75;;;9.90;99.90;;;;;;4168982;28;20056;-57
2022/10/07 06:50:50;;;;;;;6.53;6.15;;;9.90;99.90;;;;;;4169064;28;20124;-58
2022/10/07 06:53:11;;;;;;;3.92;3.72;;;10.00;99.90;;;;;;4168939;28;20080;-59
2022/10/07 06:55:32;;;;;;;4.63;4.53;;;10.10;99.90;;;;;;4168927;28;20052;-58
2022/10/07 06:57:53;;;;;;;4.80;4.70;;;10.30;99.90;;;;;;4168911;28;20106;-58
2022/10/07 07:00:14;;;;;;;3.80;3.55;;;10.50;99.90;;;;;;4168743;28;20412;-57
2022/10/07 07:02:35;;;;;;;7.10;5.28;;;10.60;99.90;;;;;;4168541;28;20056;-58
2022/10/07 07:04:56;;;;;;;4.85;4.65;;;10.70;99.90;;;;;;4168791;28;20051;-58
2022/10/07 07:07:17;;;;;;;5.50;5.38;;;10.80;99.90;;;;;;4168192;28;20048;-58
2022/10/07 07:09:38;;;;;;;5.47;5.22;;;10.90;99.90;;;;;;4168327;28;20053;-58
2022/10/07 07:11:58;;;;;;;6.35;6.05;;;11.00;99.90;;;;;;4168601;28;20056;-58
2022/10/07 07:14:20;;;;;;;6.30;5.80;;;11.10;99.90;;;;;;4169507;28;20416;-58
2022/10/07 07:16:41;;;;;;;9.38;7.40;;;11.20;99.90;;;;;;4172122;28;20104;-58
2022/10/07 07:19:04;;;;;;;4.70;4.38;;;11.30;99.90;;;;;;4171665;28;20060;-57
2022/10/07 07:21:27;;;;;;;5.85;5.50;;;11.40;99.90;;;;;;4171878;28;20574;-57
2022/10/07 07:23:49;;;;;;;4.57;4.38;;;11.60;99.90;;;;;;4171450;28;20424;-58
2022/10/07 07:26:11;;;;;;;5.07;4.78;;;11.60;99.90;;;;;;4171241;28;20606;-58
2022/10/07 07:28:32;;;;;;;5.72;4.78;;;11.70;99.90;;;;;;4171279;28;20535;-58
2022/10/07 07:30:53;;;;;;;6.18;5.53;;;11.80;99.90;;;;;;4171854;28;20102;-58
2022/10/07 07:33:13;;;;;;;5.07;4.82;;;11.90;99.90;;;;;;4171286;28;20115;-57
2022/10/07 07:35:40;;;;;;;4.88;4.65;;;12.00;99.90;;;;;;4171893;28;20064;-58
2022/10/07 07:38:00;;;;;;;6.78;6.15;;;12.10;99.90;;;;;;4171258;28;20052;-58
2022/10/07 07:40:21;;;;;;;6.63;5.05;;;12.20;99.90;;;;;;4171656;28;20125;-58
2022/10/07 07:42:42;;;;;;;4.60;4.40;;;12.40;99.90;;;;;;4171558;28;20060;-58
2022/10/07 07:45:03;;;;;;;4.60;4.35;;;12.40;99.90;;;;;;4171768;28;20064;-58
2022/10/07 07:47:23;;;;;;;4.57;4.18;;;12.50;99.90;;;;;;4171475;28;20475;-57
2022/10/07 07:49:44;;;;;;;5.32;4.82;;;12.60;99.90;;;;;;4171053;28;20052;-58
2022/10/07 07:52:05;;;;;;;4.95;4.55;;;12.70;99.90;;;;;;4171664;28;20107;-58
2022/10/07 07:54:26;;;;;;;4.25;4.05;;;12.80;99.90;;;;;;4171048;28;20413;-57
2022/10/07 07:56:47;;;;;;;4.05;3.95;;;12.90;99.90;;;;;;4171077;28;20096;-58
2022/10/07 07:59:09;;;;;;;4.32;3.65;;;13.00;99.90;;;;;;4170772;28;20116;-57
2022/10/07 08:01:34;;;;;;;4.90;4.72;;;13.10;99.90;;;;;;4170755;28;20052;-58
2022/10/07 08:03:55;;;;;;;4.03;3.90;;;13.20;99.90;;;;;;4170783;28;20470;-58
2022/10/07 08:06:19;;;;;;;3.60;2.85;;;13.30;99.90;;;;;;4170556;28;20067;-58
2022/10/07 08:08:42;;;;;;;2.65;2.45;;;13.50;99.90;;;;;;4170573;28;20543;-58
2022/10/07 08:11:07;;;;;;;4.45;3.80;;;13.70;99.90;;;;;;4170586;28;20098;-58
2022/10/07 08:13:28;;;;;;;2.85;2.75;;;13.90;99.90;;;;;;4170906;28;20052;-58
2022/10/07 08:15:48;;;;;;;3.30;3.10;;;13.90;99.90;;;;;;4171704;28;20126;-58
2022/10/07 08:18:09;;;;;;;2.92;2.72;;;14.10;99.90;;;;;;4171142;28;20040;-58
2022/10/07 08:20:29;;;;;;;3.47;3.38;;;14.20;99.90;;;;;;4170452;28;20056;-55
2022/10/07 08:22:50;;;;;;;2.72;2.28;;;14.40;99.90;;;;;;4171260;28;20514;-55
2022/10/07 08:25:17;;;;;;;2.85;2.75;;;14.50;99.90;;;;;;4170832;28;20076;-55
2022/10/07 08:27:38;;;;;;;2.72;2.47;;;14.70;99.90;;;;;;4170913;28;20060;-55
2022/10/07 08:29:58;;;;;;;2.47;2.38;;;14.80;99.90;;;;;;4170575;28;20513;-55
2022/10/07 08:32:19;;;;;;;2.08;2.08;;;15.00;99.90;;;;;;4170256;28;20075;-55
2022/10/07 08:34:40;;;;;;;3.00;2.90;;;15.10;99.90;;;;;;4170658;28;20052;-56
2022/10/07 08:37:00;;;;;;;5.13;2.30;;;15.30;99.90;;;;;;4170479;28;20126;-55
2022/10/07 08:39:23;;;;;;;4.45;2.60;;;15.30;99.90;;;;;;4170571;28;20535;-54
2022/10/07 08:42:15;;;;;;;2.20;2.10;;;15.50;99.90;;;;;;4170743;28;20056;-55
2022/10/07 08:44:43;;;;;;;2.85;2.58;;;15.70;99.90;;;;;;4170658;28;20103;-55
2022/10/07 08:47:09;;;;;;;1.50;1.50;;;15.90;99.90;;;;;;4170388;28;20056;-55
2022/10/07 08:49:41;;;;;;;2.45;1.85;;;16.10;99.90;;;;;;4170652;28;20060;-55
2022/10/07 08:52:19;;;;;;;5.57;1.90;;;16.30;99.90;;;;;;4170678;28;20220;-54
2022/10/07 08:54:40;;;;;;;5.22;2.10;;;16.40;99.90;;;;;;4169609;28;20516;-54
2022/10/07 08:57:13;;;;;;;1.70;1.60;;;16.70;99.90;;;;;;4170881;28;20618;-55
2022/10/07 08:59:34;;;;;;;2.67;1.90;;;16.80;99.90;;;;;;4170361;28;20108;-56
2022/10/07 09:02:09;;;;;;;2.88;1.88;;;17.00;99.90;;;;;;4169223;28;20063;-55
2022/10/07 09:04:53;;;;;;;2.15;1.80;;;17.30;99.90;;;;;;4170334;28;20522;-55
2022/10/07 09:07:58;;;;;;;2.20;1.83;;;17.50;99.90;;;;;;4170552;28;20118;-55
2022/10/07 09:10:30;;;;;;;1.50;1.50;;;17.70;99.90;;;;;;4167771;28;20051;-56
2022/10/07 09:12:59;;;;;;;1.60;1.50;;;17.90;99.90;;;;;;4167463;28;20547;-55
2022/10/07 09:15:48;;;;;;;1.65;1.55;;;18.20;99.90;;;;;;4167724;28;20056;-56
2022/10/07 09:18:23;;;;;;;3.83;1.85;;;18.40;99.90;;;;;;4167633;28;20060;-56
2022/10/07 09:20:51;;;;;;;3.08;1.67;;;18.60;99.90;;;;;;4168156;28;20164;-56
2022/10/07 09:23:15;;;;;;;1.70;1.60;;;18.80;99.90;;;;;;4167671;28;20064;-56
2022/10/07 09:25:35;;;;;;;1.77;1.70;;;18.90;99.90;;;;;;4167880;28;20132;-56
2022/10/07 09:27:56;;;;;;;3.97;2.10;;;19.00;99.90;;;;;;4167753;28;20076;-56
2022/10/07 09:30:21;;;;;;;3.47;2.97;;;19.00;99.90;;;;;;4167696;28;20136;-56
2022/10/07 09:32:46;;;;;;;2.30;2.17;;;19.30;99.90;;;;;;4167657;28;20132;-55
2022/10/07 09:35:12;;;;;;;1.58;1.50;;;19.40;99.90;;;;;;4167257;28;20043;-56
2022/10/07 09:37:33;;;;;;;4.40;2.38;;;19.60;99.90;;;;;;4164752;28;20519;-56
2022/10/07 09:39:58;;;;;;;4.28;1.60;;;19.80;99.90;;;;;;4164854;28;20107;-56
2022/10/07 09:42:39;;;;;;;2.30;2.10;;;19.90;99.90;;;;;;4169050;28;20052;-55
2022/10/07 09:45:03;;;;;;;1.83;1.73;;;20.00;99.90;;;;;;4168544;28;20126;-56
2022/10/07 09:47:26;;;;;;;2.45;1.30;;;20.30;99.90;;;;;;4167129;28;20128;-55
2022/10/07 09:49:50;;;;;;;1.60;1.50;;;20.50;99.90;;;;;;4163694;28;20494;-56
2022/10/07 09:52:22;;;;;;;3.20;1.52;;;20.70;99.90;;;;;;4167696;28;20051;-56
2022/10/07 09:54:47;;;;;;;5.57;1.30;;;20.90;99.90;;;;;;4167161;28;20052;-57
2022/10/07 09:57:39;;;;;;;1.80;1.20;;;21.10;99.90;;;;;;4167048;28;20059;-56
2022/10/07 10:00:12;;;;;;;1.30;1.30;;;21.10;99.90;;;;;;4163900;28;20438;-56
2022/10/07 10:02:34;;;;;;;1.63;1.52;;;21.50;99.90;;;;;;4164777;28;20555;-55
2022/10/07 10:04:56;;;;;;;1.90;1.40;;;21.40;99.90;;;;;;4162363;28;20091;-55
2022/10/07 10:07:23;;;;;;;1.27;1.20;;;21.50;99.90;;;;;;4165736;28;20138;-56
2022/10/07 10:10:02;;;;;;;1.20;1.20;;;21.60;99.90;;;;;;4165040;28;20474;-56
2022/10/07 10:12:24;;;;;;;2.13;1.75;;;21.80;99.90;;;;;;4153353;28;20227;-56
2022/10/07 10:14:52;;;;;;;1.30;1.20;;;22.10;99.90;;;;;;4164952;28;20056;-56
2022/10/07 10:17:35;;;;;;;1.38;1.30;;;22.30;99.90;;;;;;4162390;28;20048;-56
2022/10/07 10:20:31;;;;;;;1.20;1.10;;;22.50;99.90;;;;;;4164099;28;20063;-56
2022/10/07 10:22:52;;;;;;;0.93;0.93;;;21.90;99.90;;;;;;4167844;28;20051;-57
2022/10/07 10:27:58;;;;;;;0.90;0.90;;;22.10;99.90;;;;;;4164492;28;20055;-56
2022/10/07 10:30:21;;;;;;;1.27;0.90;;;22.20;99.90;;;;;;4161348;28;20043;-57
2022/10/07 10:32:41;;;;;;;;;;;22.40;99.90;;;;;;4166712;28;20053;-56
2022/10/07 10:35:18;;;;;;;1.10;1.00;;;22.80;99.90;;;;;;4166817;28;19932;-56
2022/10/07 10:37:39;;;;;;;2.85;1.52;;;22.80;99.90;;;;;;4168939;28;20130;-56
2022/10/07 10:40:18;;;;;;;3.90;1.00;;;22.70;99.90;;;;;;4167734;28;20056;-56
2022/10/07 10:43:02;;;;;;;1.38;1.38;;;22.40;99.90;;;;;;4163770;28;20408;-56
2022/10/07 10:46:00;;;;;;;0.90;0.90;;;22.50;99.90;;;;;;4166522;28;20119;-56
2022/10/07 10:48:24;;;;;;;0.90;0.90;;;22.60;99.90;;;;;;4169015;28;20115;-56
2022/10/07 10:51:06;;;;;;;0.80;0.80;;;22.70;99.90;;;;;;4170885;28;20519;-56
2022/10/07 10:54:02;;;;;;;0.80;0.80;;;23.10;99.90;;;;;;4166649;28;20071;-56
2022/10/07 10:56:34;;;;;;;0.80;0.80;;;23.00;99.90;;;;;;4169041;28;20126;-56
2022/10/07 10:59:20;;;;;;;0.80;0.80;;;23.10;99.90;;;;;;4171866;28;20067;-56
2022/10/07 11:01:44;;;;;;;2.05;0.77;;;23.40;99.70;;;;;;4169358;28;20523;-56
2022/10/07 11:04:11;;;;;;;0.75;0.70;;;23.30;98.70;;;;;;4169624;28;20047;-56
2022/10/07 11:06:34;;;;;;;0.80;0.80;;;23.10;99.20;;;;;;4171538;28;20044;-56
2022/10/07 11:08:57;;;;;;;1.38;0.75;;;23.20;99.90;;;;;;4171285;28;20084;-56
2022/10/07 11:11:20;;;;;;;1.73;0.70;;;23.40;99.00;;;;;;4170946;28;20068;-57
2022/10/07 11:13:59;;;;;;;0.75;0.75;;;23.60;99.90;;;;;;4171284;28;20049;-56
2022/10/07 11:16:47;;;;;;;0.93;0.70;;;23.90;99.50;;;;;;4171941;28;20055;-56
2022/10/07 11:19:33;;;;;;;1.05;0.80;;;23.90;98.50;;;;;;4168355;28;20408;-56
2022/10/07 11:21:57;;;;;;;1.55;0.70;;;24.00;97.80;;;;;;4170700;28;20055;-55
2022/10/07 11:24:40;;;;;;;0.80;0.80;;;23.80;98.30;;;;;;4169297;28;20090;-56
2022/10/07 11:27:15;;;;;;;0.80;0.80;;;23.80;98.10;;;;;;4169438;28;20451;-56
2022/10/07 11:30:01;;;;;;;0.70;0.70;;;23.60;98.10;;;;;;4168689;28;20052;-56
2022/10/07 11:32:34;;;;;;;0.85;0.70;;;23.70;98.70;;;;;;4169616;28;20053;-56
2022/10/07 11:35:30;;;;;;;1.50;0.70;;;24.10;98.90;;;;;;4169440;28;20056;-57
2022/10/07 11:38:08;;;;;;;0.70;0.70;;;24.50;97.60;;;;;;4171397;28;20554;-56
2022/10/07 11:40:33;;;;;;;1.05;0.75;;;24.20;97.10;;;;;;4171387;28;20131;-56
2022/10/07 11:42:56;;;;;;;0.70;0.70;;;24.30;96.60;;;;;;4169861;28;20056;-57
2022/10/07 11:45:20;;;;;;;0.60;0.60;;;24.50;98.10;;;;;;4169478;28;20147;-57
2022/10/07 11:47:53;;;;;;;1.05;0.60;;;24.20;96.00;;;;;;4171723;28;20055;-56
2022/10/07 11:50:17;;;;;;;0.68;0.68;;;24.40;96.90;;;;;;4170475;28;20452;-56
2022/10/07 11:52:45;;;;;;;0.60;0.60;;;24.50;97.60;;;;;;4171658;28;20051;-56
2022/10/07 11:55:08;;;;;;;0.82;0.60;;;24.70;96.30;;;;;;4170915;28;20467;-57
2022/10/07 11:57:32;;;;;;;0.70;0.70;;;24.70;98.20;;;;;;4171576;28;20188;-56
2022/10/07 12:00:03;;;;;;;0.70;0.70;;;24.80;97.00;;;;;;4169250;28;20471;-55
2022/10/07 12:02:27;;;;;;;1.02;1.02;;;24.50;97.30;;;;;;4169866;28;20483;-55
2022/10/07 12:04:48;;;;;;;0.70;0.70;;;24.50;96.10;;;;;;4171068;28;20095;-56
2022/10/07 12:07:43;;;;;;;1.85;0.77;;;24.70;96.60;;;;;;4170544;28;20048;-57
2022/10/07 12:10:20;;;;;;;1.00;1.00;;;24.60;96.90;;;;;;4171139;28;20119;-57
2022/10/07 12:12:41;;;;;;;1.52;0.80;;;24.80;97.20;;;;;;4170849;28;20044;-56
2022/10/07 12:15:03;;;;;;;1.80;0.90;;;24.60;98.00;;;;;;4171548;28;20047;-56
2022/10/07 12:17:27;;;;;;;0.90;0.90;;;24.80;97.90;;;;;;4170979;28;20048;-55
2022/10/07 12:20:26;;;;;;;0.95;0.80;;;24.70;97.70;;;;;;4170935;28;20124;-56
2022/10/07 12:23:18;;;;;;;0.90;0.90;;;24.60;98.00;;;;;;4170598;28;20087;-56
2022/10/07 12:25:45;;;;;;;1.00;0.95;;;24.50;97.70;;;;;;4169531;28;20052;-56
2022/10/07 12:28:26;;;;;;;1.17;1.05;;;24.40;98.60;;;;;;4169262;28;20068;-56
2022/10/07 12:30:55;;;;;;;1.70;0.90;;;24.70;99.90;;;;;;4170861;28;20064;-56
2022/10/07 12:33:39;;;;;;;1.08;0.85;;;24.70;99.60;;;;;;4170478;28;20051;-56
2022/10/07 12:36:28;;;;;;;0.93;0.85;;;24.70;99.10;;;;;;4169135;28;20048;-56
2022/10/07 12:39:00;;;;;;;0.80;0.80;;;24.30;99.40;;;;;;4169936;28;20052;-56
2022/10/07 12:41:38;;;;;;;0.95;0.80;;;24.70;99.90;;;;;;4167980;28;20052;-56
2022/10/07 12:44:27;;;;;;;0.88;0.88;;;24.50;99.60;;;;;;4170912;28;20068;-56
2022/10/07 12:47:09;;;;;;;1.85;0.98;;;24.20;99.70;;;;;;4168864;28;20100;-55
2022/10/07 12:49:48;;;;;;;0.90;0.90;;;24.50;99.90;;;;;;4170209;28;20056;-55
2022/10/07 12:52:18;;;;;;;0.88;0.88;;;24.30;99.90;;;;;;4171033;28;20059;-56
2022/10/07 12:54:49;;;;;;;0.90;0.90;;;24.30;99.90;;;;;;4170051;28;20052;-56
2022/10/07 12:57:30;;;;;;;1.70;0.85;;;24.50;99.90;;;;;;4170091;28;20114;-56
2022/10/07 13:00:04;;;;;;;0.88;0.88;;;24.70;99.90;;;;;;4169937;28;20076;-56
2022/10/07 13:02:55;;;;;;;8.10;1.35;;;24.80;99.70;;;;;;4170237;28;20420;-56